Terminal Aerodrome Forecast
Issued by NWS

Home | Current Version | Previous Version | Text Only | Print | Product List | Glossary On
Versions: 1 2 3 4 5 6 7 8 9 10 11 12 13 14 15 16 17 18 19 20
000
FTUS41 KGYX 132300
TAFLEB
TAF
KLEB 132320Z 1400/1424 18010KT 6SM -SHRA BR BKN025
     FM140200 18007KT 4SM -SHRA BR OVC015
     FM140900 19003KT 2SM BR OVC004
     FM141300 25005KT P6SM SCT050 SCT250
     FM142100 24007KT P6SM VCSH BKN050=

USA.gov is the U.S. government's official web portal to all federal, state and local government web resources and services.